モンテレー の空港の天気 - METARとTAF

ヘネラル・マリアノ・エソコベド国際空港 ( MMMY / MTY ) - メキシコ ヌエボ・レオン州モンテレー
飛行場実況気象(Metar)
観測時間06/17 13:42 CDT (06/17 18:42 UTC)
風向・風速東北東 5m/s 瞬間風速10m/s
視程10km以上
天気現象
全天の4割程度の雲 雲底高度 910m
気温34℃
湿度50%
気圧1011hPa
METARMMMY 171842Z 07010G20KT 7SM SCT030 34/22 A2986 RMK 8/500 HZY
過去の天気等 Google飛行場航空写真 Wunderground天気予報

過去48時間のMETAR

飛行場予報(TAF)
発表時間: 6/17 11:17 CDT (6/17 16:17 UTC)
予報対象時間: 17日13時 CDT ~ 18日19時 CDT
風向・風速東 3m/s
視程10km以上
天気現象煙霧
全天の4割程度の雲 雲底高度 910m
全天の4割程度の雲 雲底高度 7620m
17日15時 CDT ~ 17日16時 CDT に徐々に
風向・風速東南東 8m/s
17日21時 CDT から
風向・風速東南東 3m/s
視程10km以上
全天の4割程度の雲 雲底高度 7620m
18日0時 CDT から
風向・風速静穏
視程10km以上
天気現象煙霧
全天の8割程度の雲 雲底高度 460m
18日5時 CDT から
風向・風速東 3m/s
視程4830m
天気現象もや 煙霧
全天を覆う雲 雲底高度 300m
18日6時 CDT ~ 18日10時 CDT に一時的に
視程800m
天気現象
全天を覆う雲 鉛直視程 60m
18日11時 CDT から
風向・風速東南東 3m/s
視程8050m
天気現象煙霧
全天の8割程度の雲 雲底高度 610m
18日15時 CDT から
風向・風速東南東 6m/s
視程10km以上
天気現象煙霧
全天の4割程度の雲 雲底高度 910m
TAF MMMY 171617Z 1718/1824 09006KT 6SM HZ SCT030 SCT250 TX38/1722Z TN24/1813Z
BECMG 1720/1721 12015KT
FM180200 12005KT P6SM SCT250
FM180500 00000KT 6SM HZ BKN015
FM181000 09005KT 3SM BR HZ OVC010
TEMPO 1811/1815 1/2SM FG VV002
FM181600 12005KT 5SM HZ BKN020
FM182000 12012KT 6SM HZ SCT030